createdAt,value
2023-01-10T00:00:32.318Z,4.23
2023-01-10T00:03:00.309Z,5.70
2023-01-10T00:05:28.301Z,5.20
2023-01-10T00:07:59.163Z,7.43
2023-01-10T00:10:27.095Z,6.20
2023-01-10T00:13:12.283Z,7.60
2023-01-10T00:15:40.243Z,8.27
2023-01-10T00:18:08.166Z,6.63
2023-01-10T00:20:36.109Z,6.00
2023-01-10T00:23:07.156Z,5.63
2023-01-10T00:25:36.270Z,7.33
2023-01-10T00:28:10.929Z,5.27
2023-01-10T00:30:39.813Z,2.93
2023-01-10T00:33:07.819Z,3.37
2023-01-10T00:35:35.760Z,4.40
2023-01-10T00:38:06.804Z,3.17
2023-01-10T00:40:34.728Z,3.00
2023-01-10T00:43:19.953Z,4.20
2023-01-10T00:45:47.865Z,2.50
2023-01-10T00:48:15.833Z,3.00
2023-01-10T00:50:44.016Z,2.80
2023-01-10T00:53:13.311Z,2.83
2023-01-10T00:55:41.714Z,2.87
2023-01-10T00:58:11.698Z,2.77
2023-01-10T01:00:39.706Z,2.90
2023-01-10T01:03:09.018Z,2.97
2023-01-10T01:05:41.588Z,2.73
2023-01-10T01:08:09.452Z,2.83
2023-01-10T01:10:38.746Z,2.90
2023-01-10T01:13:08.237Z,2.90
2023-01-10T01:15:36.211Z,3.17
2023-01-10T01:18:04.266Z,2.77
2023-01-10T01:20:32.150Z,3.13
2023-01-10T01:23:00.821Z,3.07
2023-01-10T01:25:28.730Z,3.00
2023-01-10T01:27:58.086Z,2.60
2023-01-10T01:30:26.033Z,3.80
2023-01-10T01:32:53.923Z,3.23
2023-01-10T01:35:22.119Z,2.60
2023-01-10T01:37:50.010Z,2.87
2023-01-10T01:40:18.437Z,2.57
2023-01-10T01:42:46.825Z,3.07
2023-01-10T01:45:35.433Z,3.67
2023-01-10T01:48:08.706Z,2.73
2023-01-10T01:50:38.295Z,3.03
2023-01-10T01:53:08.809Z,2.90
2023-01-10T01:55:36.731Z,3.17
2023-01-10T01:58:06.607Z,3.10
2023-01-10T02:00:35.914Z,2.70
2023-01-10T02:03:03.861Z,2.57
2023-01-10T02:05:31.882Z,3.60
2023-01-10T02:07:59.880Z,2.77
2023-01-10T02:10:30.962Z,2.80
2023-01-10T02:13:01.225Z,3.53
2023-01-10T02:15:29.120Z,3.00
2023-01-10T02:17:58.438Z,3.03
2023-01-10T02:20:26.767Z,3.27
2023-01-10T02:23:29.404Z,2.70
2023-01-10T02:26:31.944Z,3.23
2023-01-10T02:29:16.349Z,3.07
2023-01-10T02:32:23.453Z,2.77
2023-01-10T02:35:01.960Z,3.10
2023-01-10T02:37:36.442Z,3.13
2023-01-10T02:40:06.028Z,3.10
2023-01-10T02:42:38.003Z,3.70
2023-01-10T02:45:08.078Z,2.70
2023-01-10T02:47:38.508Z,2.97
2023-01-10T02:50:26.715Z,3.50
2023-01-10T02:52:54.623Z,3.03
2023-01-10T02:55:22.734Z,3.30
2023-01-10T02:57:51.342Z,3.27
2023-01-10T03:00:32.102Z,3.53
2023-01-10T03:03:14.422Z,3.07
2023-01-10T03:05:53.371Z,3.20
2023-01-10T03:08:27.336Z,2.70
2023-01-10T03:10:57.856Z,2.67
2023-01-10T03:13:27.868Z,2.93
2023-01-10T03:15:55.852Z,3.17
2023-01-10T03:18:26.469Z,2.67
2023-01-10T03:20:54.374Z,3.33
2023-01-10T03:23:22.312Z,2.93
2023-01-10T03:25:50.666Z,2.67
2023-01-10T03:28:20.519Z,2.87
2023-01-10T03:30:50.709Z,2.77
2023-01-10T03:33:19.853Z,3.27
2023-01-10T03:35:54.439Z,3.00
2023-01-10T03:38:25.293Z,3.07
2023-01-10T03:40:56.595Z,2.90
2023-01-10T03:43:45.159Z,2.40
2023-01-10T03:46:14.333Z,2.60
2023-01-10T03:48:43.705Z,2.37
2023-01-10T03:51:12.995Z,2.00
2023-01-10T03:53:40.934Z,2.10
2023-01-10T03:56:09.102Z,2.20
2023-01-10T03:58:37.002Z,2.27
2023-01-10T04:01:05.034Z,2.40
2023-01-10T04:03:32.954Z,2.20
2023-01-10T04:06:00.892Z,2.30
2023-01-10T04:08:30.171Z,2.00
2023-01-10T04:10:58.092Z,2.17
2023-01-10T04:13:26.025Z,2.13
2023-01-10T04:15:53.990Z,2.03
2023-01-10T04:18:21.934Z,2.33
2023-01-10T04:20:52.127Z,1.73
2023-01-10T04:23:20.208Z,2.00
2023-01-10T04:25:49.686Z,1.80
2023-01-10T04:28:17.560Z,1.70
2023-01-10T04:30:45.510Z,1.60
2023-01-10T04:33:13.731Z,1.27
2023-01-10T04:35:41.714Z,1.43
2023-01-10T04:38:09.622Z,1.30
2023-01-10T04:40:37.516Z,1.47
2023-01-10T04:43:06.827Z,1.50
2023-01-10T04:45:34.753Z,1.70
2023-01-10T04:48:02.632Z,1.37
2023-01-10T04:50:30.546Z,1.23
2023-01-10T04:52:58.428Z,1.00
2023-01-10T04:55:26.427Z,0.90
2023-01-10T04:57:54.290Z,0.80
2023-01-10T05:00:23.998Z,1.00
2023-01-10T05:02:56.657Z,0.80
2023-01-10T05:05:24.664Z,1.10
2023-01-10T05:07:52.606Z,0.80
2023-01-10T05:10:20.687Z,0.70
2023-01-10T05:12:48.598Z,0.50
2023-01-10T05:15:16.580Z,0.90
2023-01-10T05:17:45.859Z,0.73
2023-01-10T05:20:14.450Z,0.60
2023-01-10T05:22:42.393Z,0.40
2023-01-10T05:25:11.030Z,0.47
2023-01-10T05:27:42.149Z,0.50
2023-01-10T05:30:12.267Z,0.40
2023-01-10T05:32:40.213Z,0.50
2023-01-10T05:35:10.304Z,0.50
2023-01-10T05:37:38.299Z,0.50
2023-01-10T05:40:07.394Z,0.60
2023-01-10T05:42:35.307Z,0.33
2023-01-10T05:45:03.458Z,0.40
2023-01-10T05:47:31.393Z,0.50
2023-01-10T05:49:59.275Z,0.40
2023-01-10T05:52:28.508Z,0.20
2023-01-10T05:54:56.451Z,0.50
2023-01-10T05:57:24.742Z,0.23
2023-01-10T05:59:52.662Z,0.33
2023-01-10T06:02:20.648Z,0.40
2023-01-10T06:04:48.614Z,0.30
2023-01-10T06:07:16.532Z,0.30
2023-01-10T06:09:46.759Z,0.27
2023-01-10T06:12:14.731Z,0.50
2023-01-10T06:14:42.625Z,0.40
2023-01-10T06:17:10.899Z,0.40
2023-01-10T06:19:38.792Z,0.20
2023-01-10T06:22:06.685Z,0.20
2023-01-10T06:24:34.605Z,0.20
2023-01-10T06:27:03.873Z,0.20
2023-01-10T06:29:31.863Z,0.20
2023-01-10T06:32:00.350Z,0.30
2023-01-10T06:34:28.245Z,0.20
2023-01-10T06:36:56.247Z,0.30
2023-01-10T06:39:24.258Z,0.50
2023-01-10T06:41:52.132Z,0.30
2023-01-10T06:44:21.440Z,1.53
2023-01-10T06:46:49.342Z,3.17
2023-01-10T06:49:17.278Z,2.83
2023-01-10T06:51:45.212Z,2.40
2023-01-10T06:54:13.094Z,2.30
2023-01-10T06:56:41.103Z,1.63
2023-01-10T06:59:09.951Z,1.30
2023-01-10T07:01:39.358Z,0.73
2023-01-10T07:04:07.363Z,0.57
2023-01-10T07:06:38.359Z,0.90
2023-01-10T07:09:06.611Z,0.40
2023-01-10T07:11:34.581Z,0.30
2023-01-10T07:14:02.676Z,0.37
2023-01-10T07:16:30.666Z,0.40
2023-01-10T07:19:00.988Z,0.60
2023-01-10T07:21:29.042Z,0.70
2023-01-10T07:23:57.085Z,0.60
2023-01-10T07:26:25.022Z,2.63
2023-01-10T07:28:52.950Z,7.43
2023-01-10T07:31:22.843Z,9.07
2023-01-10T07:33:51.887Z,8.63
2023-01-10T07:36:21.203Z,8.10
2023-01-10T07:38:49.136Z,21.10
2023-01-10T07:41:17.077Z,9.80
2023-01-10T07:43:44.985Z,11.03
2023-01-10T07:46:16.884Z,20.60
2023-01-10T07:48:46.279Z,16.97
2023-01-10T07:51:14.222Z,2.90
2023-01-10T07:53:43.487Z,0.83
2023-01-10T07:56:11.417Z,0.70
2023-01-10T07:58:39.318Z,0.97
2023-01-10T08:01:07.877Z,0.60
2023-01-10T08:03:36.800Z,0.70
2023-01-10T08:06:05.844Z,0.87
2023-01-10T08:08:34.526Z,2.13
2023-01-10T08:11:04.023Z,3.27
2023-01-10T08:13:32.071Z,3.40
2023-01-10T08:16:00.062Z,3.90
2023-01-10T08:18:28.033Z,3.83
2023-01-10T08:20:55.987Z,4.40
2023-01-10T08:23:23.920Z,3.70
2023-01-10T08:25:52.359Z,5.37
2023-01-10T08:28:21.695Z,4.43
2023-01-10T08:30:50.574Z,6.57
2023-01-10T08:33:19.002Z,6.27
2023-01-10T08:35:46.952Z,3.07
2023-01-10T08:38:15.120Z,3.80
2023-01-10T08:40:44.064Z,6.10
2023-01-10T08:43:12.699Z,5.07
2023-01-10T08:45:42.077Z,5.57
2023-01-10T08:48:10.770Z,5.67
2023-01-10T08:50:38.900Z,6.57
2023-01-10T08:53:07.245Z,5.80
2023-01-10T08:55:36.342Z,5.87
2023-01-10T08:58:04.303Z,6.53
2023-01-10T09:00:32.276Z,4.23
2023-01-10T09:03:01.716Z,4.97
2023-01-10T09:05:29.704Z,5.53
2023-01-10T09:07:59.355Z,5.83
2023-01-10T09:10:27.341Z,5.77
2023-01-10T09:12:59.774Z,5.80
2023-01-10T09:15:28.933Z,4.97
2023-01-10T09:17:57.075Z,5.37
2023-01-10T09:20:29.277Z,7.83
2023-01-10T09:22:57.507Z,4.60
2023-01-10T09:25:25.779Z,5.37
2023-01-10T09:27:58.056Z,6.60
2023-01-10T09:30:26.230Z,6.37
2023-01-10T09:32:54.201Z,6.77
2023-01-10T09:35:22.254Z,4.50
2023-01-10T09:37:51.533Z,7.10
2023-01-10T09:40:22.908Z,6.53
2023-01-10T09:42:57.223Z,5.53
2023-01-10T09:45:30.005Z,5.30
2023-01-10T09:48:00.237Z,6.27
2023-01-10T09:55:46.973Z,5.60
2023-01-10T09:58:16.659Z,5.83
2023-01-10T10:00:46.136Z,5.23
2023-01-10T10:03:22.899Z,6.50
2023-01-10T10:05:54.053Z,4.33
2023-01-10T10:08:26.969Z,4.53
2023-01-10T10:11:04.984Z,6.67
2023-01-10T10:13:37.887Z,6.03
2023-01-10T10:16:10.921Z,5.80
2023-01-10T10:18:43.254Z,4.37
2023-01-10T10:21:17.431Z,4.60
2023-01-10T10:24:03.078Z,4.83
2023-01-10T10:26:34.633Z,3.80
2023-01-10T10:29:26.503Z,6.03
2023-01-10T10:32:26.008Z,6.67
2023-01-10T10:34:54.892Z,4.27
2023-01-10T10:37:25.114Z,5.33
2023-01-10T10:39:54.924Z,3.10
2023-01-10T10:42:24.210Z,4.57
2023-01-10T10:44:54.008Z,3.33
2023-01-10T10:47:23.033Z,4.50
2023-01-10T10:49:52.314Z,5.53
2023-01-10T10:52:24.821Z,4.73
2023-01-10T10:54:53.015Z,4.20
2023-01-10T10:57:21.575Z,6.17
2023-01-10T10:59:54.951Z,5.23
2023-01-10T11:02:25.383Z,5.23
2023-01-10T11:04:54.965Z,3.43
2023-01-10T11:07:23.384Z,4.20
2023-01-10T11:09:53.715Z,3.23
2023-01-10T11:12:22.709Z,5.90
2023-01-10T11:14:52.949Z,6.20
2023-01-10T11:17:25.906Z,5.93
2023-01-10T11:19:58.429Z,4.70
2023-01-10T11:22:26.774Z,5.07
2023-01-10T11:24:56.469Z,4.40
2023-01-10T11:27:26.159Z,5.53
2023-01-10T11:29:57.566Z,4.87
2023-01-10T11:32:30.579Z,5.27
2023-01-10T11:34:59.785Z,4.57
2023-01-10T11:37:29.389Z,6.67
2023-01-10T11:40:16.567Z,6.00
2023-01-10T11:42:44.760Z,3.87
2023-01-10T11:45:23.687Z,5.73
2023-01-10T11:47:54.545Z,4.20
2023-01-10T11:50:23.784Z,3.70
2023-01-10T11:52:51.778Z,3.83
2023-01-10T11:55:21.115Z,3.27
2023-01-10T11:57:56.383Z,4.50
2023-01-10T12:00:32.031Z,4.50
2023-01-10T12:02:59.906Z,5.03
2023-01-10T12:05:28.198Z,3.30
2023-01-10T12:07:56.721Z,3.90
2023-01-10T12:10:25.967Z,3.10
2023-01-10T12:12:57.901Z,4.43
2023-01-10T12:15:28.858Z,4.67
2023-01-10T12:17:57.143Z,3.07
2023-01-10T12:20:25.074Z,4.50
2023-01-10T12:22:54.483Z,5.27
2023-01-10T12:25:24.093Z,5.40
2023-01-10T12:27:52.469Z,3.17
2023-01-10T12:30:23.189Z,3.63
2023-01-10T12:33:02.834Z,3.63
2023-01-10T12:35:39.543Z,3.97
2023-01-10T12:38:16.784Z,4.53
2023-01-10T12:40:46.559Z,4.40
2023-01-10T12:43:33.930Z,4.37
2023-01-10T12:46:21.885Z,3.73
2023-01-10T12:48:57.706Z,3.67
2023-01-10T12:51:26.977Z,3.73
2023-01-10T12:53:56.437Z,2.83
2023-01-10T12:56:24.430Z,4.70
2023-01-10T12:58:56.196Z,3.13
2023-01-10T13:01:25.699Z,5.43
2023-01-10T13:03:56.773Z,4.23
2023-01-10T13:06:27.954Z,6.50
2023-01-10T13:08:58.086Z,6.07
2023-01-10T13:11:26.336Z,5.50
2023-01-10T13:13:56.140Z,4.17
2023-01-10T13:16:28.370Z,5.93
2023-01-10T13:19:06.623Z,4.77
2023-01-10T13:21:34.997Z,6.37
2023-01-10T13:24:03.623Z,4.03
2023-01-10T13:26:53.550Z,3.90
2023-01-10T13:29:22.908Z,6.30
2023-01-10T13:31:57.207Z,4.37
2023-01-10T13:34:27.698Z,4.73
2023-01-10T13:37:02.691Z,4.27
2023-01-10T13:39:32.551Z,3.47
2023-01-10T13:42:46.098Z,3.20
2023-01-10T13:45:21.638Z,4.70
2023-01-10T13:48:25.846Z,5.60
2023-01-10T13:51:13.996Z,4.60
2023-01-10T13:54:00.900Z,4.90
2023-01-10T13:56:46.648Z,3.77
2023-01-10T13:59:33.084Z,5.40
2023-01-10T14:02:19.533Z,4.57
2023-01-10T14:04:49.043Z,4.03
2023-01-10T14:07:22.720Z,5.10
2023-01-10T14:09:51.110Z,5.00
2023-01-10T14:12:25.296Z,4.67
2023-01-10T14:14:58.596Z,3.67
2023-01-10T14:17:27.293Z,5.37
2023-01-10T14:20:15.783Z,4.77
2023-01-10T14:22:48.324Z,4.93
2023-01-10T14:25:20.324Z,3.27
2023-01-10T14:27:48.972Z,4.00
2023-01-10T14:30:18.598Z,4.40
2023-01-10T14:32:49.154Z,4.37
2023-01-10T14:35:18.981Z,3.73
2023-01-10T14:37:53.140Z,3.17
2023-01-10T14:40:27.048Z,4.23
2023-01-10T14:42:58.441Z,4.10
2023-01-10T14:45:31.833Z,3.33
2023-01-10T14:48:00.025Z,3.57
2023-01-10T14:50:30.156Z,2.73
2023-01-10T14:52:59.445Z,2.80
2023-01-10T14:55:28.223Z,2.87
2023-01-10T14:57:57.099Z,2.33
2023-01-10T15:00:29.133Z,2.03
2023-01-10T15:02:57.754Z,2.97
2023-01-10T15:05:27.070Z,2.60
2023-01-10T15:07:55.481Z,2.97
2023-01-10T15:10:25.960Z,3.53
2023-01-10T15:12:55.111Z,3.03
2023-01-10T15:15:25.975Z,2.93
2023-01-10T15:17:54.059Z,2.80
2023-01-10T15:20:23.348Z,2.50
2023-01-10T15:22:55.572Z,3.00
2023-01-10T15:25:30.444Z,2.37
2023-01-10T15:27:58.711Z,3.00
2023-01-10T15:30:27.409Z,2.90
2023-01-10T15:32:55.986Z,3.27
2023-01-10T15:35:35.165Z,2.87
2023-01-10T15:38:05.413Z,2.87
2023-01-10T15:40:36.342Z,2.80
2023-01-10T15:43:25.589Z,2.50
2023-01-10T15:45:55.889Z,2.73
2023-01-10T15:48:28.200Z,2.37
2023-01-10T15:51:01.315Z,1.80
2023-01-10T15:53:51.759Z,1.60
2023-01-10T15:56:22.047Z,1.57
2023-01-10T15:58:50.107Z,1.80
2023-01-10T16:01:20.276Z,2.40
2023-01-10T16:03:50.245Z,3.43
2023-01-10T16:06:21.957Z,2.80
2023-01-10T16:08:50.501Z,1.90
2023-01-10T16:11:41.650Z,1.70
2023-01-10T16:14:08.895Z,1.80
2023-01-10T16:16:37.085Z,1.80
2023-01-10T16:19:05.046Z,2.23
2023-01-10T16:21:36.132Z,2.40
2023-01-10T16:24:04.473Z,2.50
2023-01-10T16:26:34.083Z,1.73
2023-01-10T16:29:02.053Z,1.80
2023-01-10T16:31:30.195Z,2.00
2023-01-10T16:33:58.132Z,1.77
2023-01-10T16:36:26.052Z,1.90
2023-01-10T16:38:54.039Z,2.60
2023-01-10T16:41:39.427Z,1.67
2023-01-10T16:44:08.672Z,1.57
2023-01-10T16:46:36.623Z,2.20
2023-01-10T16:49:06.599Z,1.90
2023-01-10T16:51:34.785Z,2.30
2023-01-10T16:54:02.986Z,2.10
2023-01-10T16:56:31.016Z,3.13
2023-01-10T16:58:59.032Z,2.87
2023-01-10T17:01:30.443Z,2.33
2023-01-10T17:03:58.547Z,2.80
2023-01-10T17:06:26.954Z,1.63
2023-01-10T17:08:54.869Z,2.73
2023-01-10T17:11:25.081Z,2.60
2023-01-10T17:13:52.988Z,1.93
2023-01-10T17:16:20.928Z,2.50
2023-01-10T17:18:50.303Z,2.10
2023-01-10T17:21:19.323Z,2.57
2023-01-10T17:23:47.390Z,3.43
2023-01-10T17:26:17.062Z,3.43
2023-01-10T17:28:45.929Z,2.30
2023-01-10T17:31:13.952Z,3.27
2023-01-10T17:33:41.821Z,4.30
2023-01-10T17:36:11.518Z,3.53
2023-01-10T17:38:39.662Z,3.90
2023-01-10T17:41:08.269Z,3.40
2023-01-10T17:43:36.152Z,3.53
2023-01-10T17:46:05.715Z,4.60
2023-01-10T17:48:34.692Z,4.80
2023-01-10T17:51:02.803Z,5.13
2023-01-10T17:53:32.216Z,2.57
2023-01-10T17:56:01.145Z,2.10
2023-01-10T17:58:29.305Z,5.93
2023-01-10T18:00:57.380Z,3.40
2023-01-10T18:03:25.360Z,4.07
2023-01-10T18:05:53.715Z,4.70
2023-01-10T18:08:21.700Z,4.40
2023-01-10T18:10:51.101Z,6.30
2023-01-10T18:13:20.488Z,4.60
2023-01-10T18:15:49.790Z,5.53
2023-01-10T18:18:21.323Z,4.30
2023-01-10T18:20:50.340Z,4.47
2023-01-10T18:23:25.352Z,5.70
2023-01-10T18:25:55.942Z,5.13
2023-01-10T18:28:39.511Z,5.43
2023-01-10T18:31:09.059Z,5.90
2023-01-10T18:33:36.943Z,5.43
2023-01-10T18:36:05.069Z,5.93
2023-01-10T18:38:33.084Z,5.73
2023-01-10T18:41:02.452Z,4.80
2023-01-10T18:43:31.279Z,4.53
2023-01-10T18:46:03.013Z,6.13
2023-01-10T18:48:31.048Z,4.53
2023-01-10T18:51:00.198Z,4.23
2023-01-10T18:53:28.221Z,4.53
2023-01-10T18:55:56.297Z,3.27
2023-01-10T18:58:25.941Z,4.10
2023-01-10T19:00:53.866Z,3.80
2023-01-10T19:03:21.777Z,3.23
2023-01-10T19:05:49.729Z,3.67
2023-01-10T19:08:17.655Z,4.10
2023-01-10T19:11:11.287Z,4.37
2023-01-10T19:13:35.114Z,3.63
2023-01-10T19:16:11.212Z,4.13
2023-01-10T19:18:39.141Z,3.57
2023-01-10T19:21:09.110Z,3.63
2023-01-10T19:23:37.053Z,4.20
2023-01-10T19:26:05.007Z,3.93
2023-01-10T19:28:34.353Z,3.67
2023-01-10T19:31:04.998Z,4.17
2023-01-10T19:33:34.393Z,5.23
2023-01-10T19:36:06.002Z,4.67
2023-01-10T19:38:33.978Z,4.90
2023-01-10T19:41:02.236Z,7.47
2023-01-10T19:43:30.192Z,4.70
2023-01-10T19:45:59.541Z,6.40
2023-01-10T19:48:27.699Z,6.40
2023-01-10T19:50:55.592Z,5.83
2023-01-10T19:53:27.150Z,6.87
2023-01-10T19:56:01.964Z,4.57
2023-01-10T19:58:30.299Z,4.03
2023-01-10T20:00:59.610Z,4.03
2023-01-10T20:03:27.561Z,4.97
2023-01-10T20:05:55.439Z,4.33
2023-01-10T20:08:23.664Z,4.23
2023-01-10T20:10:51.623Z,8.07
2023-01-10T20:13:19.497Z,4.90
2023-01-10T20:15:47.448Z,6.40
2023-01-10T20:18:19.349Z,5.07
2023-01-10T20:20:47.234Z,5.00
2023-01-10T20:23:15.362Z,4.93
2023-01-10T20:25:43.747Z,5.43
2023-01-10T20:28:11.644Z,4.57
2023-01-10T20:30:39.553Z,4.60
2023-01-10T20:33:07.601Z,3.77
2023-01-10T20:35:37.593Z,4.70
2023-01-10T20:38:07.230Z,3.90
2023-01-10T20:40:35.193Z,4.33
2023-01-10T20:43:03.091Z,5.13
2023-01-10T20:45:31.078Z,4.37
2023-01-10T20:47:58.935Z,5.30
2023-01-10T20:50:26.851Z,4.57
2023-01-10T20:52:56.154Z,6.43
2023-01-10T20:55:24.065Z,5.67
2023-01-10T20:57:52.066Z,3.93
2023-01-10T21:00:21.068Z,3.27
2023-01-10T21:02:49.123Z,4.10
2023-01-10T21:05:17.099Z,4.03
2023-01-10T21:07:45.034Z,5.60
2023-01-10T21:10:15.262Z,4.50
2023-01-10T21:12:43.317Z,4.67
2023-01-10T21:15:11.817Z,6.37
2023-01-10T21:17:41.916Z,3.70
2023-01-10T21:20:11.555Z,5.20
2023-01-10T21:22:39.412Z,3.87
2023-01-10T21:25:07.832Z,5.10
2023-01-10T21:27:37.257Z,5.77
2023-01-10T21:30:06.323Z,7.10
2023-01-10T21:32:34.205Z,6.67
2023-01-10T21:35:02.146Z,5.13
2023-01-10T21:37:30.027Z,4.90
2023-01-10T21:39:59.707Z,5.00
2023-01-10T21:42:38.262Z,4.43
2023-01-10T21:45:08.902Z,6.30
2023-01-10T21:47:38.464Z,5.23
2023-01-10T21:50:07.103Z,4.60
2023-01-10T21:52:35.044Z,5.83
2023-01-10T21:55:02.970Z,7.00
2023-01-10T21:57:30.876Z,5.60
2023-01-10T21:59:58.773Z,3.77
2023-01-10T22:02:29.957Z,5.87
2023-01-10T22:04:58.176Z,6.63
2023-01-10T22:07:26.849Z,4.90
2023-01-10T22:09:54.978Z,4.63
2023-01-10T22:12:23.899Z,6.03
2023-01-10T22:14:51.838Z,5.90
2023-01-10T22:17:19.814Z,5.63
2023-01-10T22:19:49.178Z,5.53
2023-01-10T22:22:17.547Z,6.40
2023-01-10T22:24:47.554Z,3.70
2023-01-10T22:27:15.511Z,4.77
2023-01-10T22:29:43.551Z,4.47
2023-01-10T22:32:11.454Z,4.43
2023-01-10T22:34:39.375Z,3.90
2023-01-10T22:37:08.638Z,4.57
2023-01-10T22:39:36.516Z,4.17
2023-01-10T22:42:04.474Z,4.00
2023-01-10T22:44:32.369Z,3.90
2023-01-10T22:47:00.232Z,4.30
2023-01-10T22:49:28.138Z,3.87
2023-01-10T22:51:55.983Z,4.40
2023-01-10T22:54:25.242Z,3.53
2023-01-10T22:56:53.084Z,3.23
2023-01-10T22:59:20.955Z,3.73
2023-01-10T23:01:48.890Z,4.60
2023-01-10T23:04:18.108Z,3.77
2023-01-10T23:06:46.162Z,3.23
2023-01-10T23:09:14.050Z,4.27
2023-01-10T23:11:43.436Z,3.87
2023-01-10T23:14:11.497Z,4.37
2023-01-10T23:16:39.421Z,4.53
2023-01-10T23:19:07.322Z,4.10
2023-01-10T23:21:35.237Z,4.97
2023-01-10T23:24:03.127Z,4.63
2023-01-10T23:26:31.029Z,4.23
2023-01-10T23:29:00.263Z,5.30
2023-01-10T23:31:29.977Z,3.43
2023-01-10T23:33:57.986Z,4.97
2023-01-10T23:36:26.047Z,3.17
2023-01-10T23:38:53.939Z,4.67
2023-01-10T23:41:22.057Z,5.33
2023-01-10T23:43:50.211Z,5.03
2023-01-10T23:46:19.682Z,3.93
2023-01-10T23:48:48.451Z,4.53
2023-01-10T23:51:16.428Z,3.70
2023-01-10T23:53:44.280Z,4.13
2023-01-10T23:56:13.232Z,4.80
2023-01-10T23:58:41.197Z,6.30
